createdAt,value
2022-08-18T00:08:59.611Z,97110.19
2022-08-18T00:19:03.704Z,97050.97
2022-08-18T00:29:09.982Z,97071.84
2022-08-18T00:39:11.819Z,97082.34
2022-08-18T00:49:16.198Z,97089.28
2022-08-18T00:59:29.033Z,97076.25
2022-08-18T01:09:30.594Z,97071.56
2022-08-18T01:19:51.362Z,97059.94
2022-08-18T01:29:52.982Z,97039.03
2022-08-18T01:41:23.963Z,97029.53
2022-08-18T01:50:18.835Z,97020.78
2022-08-18T02:00:20.571Z,96996.47
2022-08-18T02:10:22.087Z,96976.66
2022-08-18T02:20:23.741Z,96978.00
2022-08-18T02:30:25.315Z,96973.25
2022-08-18T02:40:27.246Z,96979.41
2022-08-18T02:50:28.897Z,97002.75
2022-08-18T03:00:30.358Z,97017.84
2022-08-18T03:10:34.058Z,97019.84
2022-08-18T03:20:35.916Z,97033.19
2022-08-18T03:30:37.995Z,97033.22
2022-08-18T03:40:39.475Z,97017.72
2022-08-18T03:50:40.934Z,97015.13
2022-08-18T04:00:42.474Z,97021.00
2022-08-18T04:10:44.630Z,97020.41
2022-08-18T04:20:57.685Z,97013.38
2022-08-18T04:31:13.491Z,97014.16
2022-08-18T04:41:14.978Z,97014.31
2022-08-18T04:52:34.442Z,97027.19
2022-08-18T05:01:45.567Z,97014.03
2022-08-18T05:11:48.613Z,97024.16
2022-08-18T05:21:51.357Z,97053.91
2022-08-18T05:31:54.038Z,97069.28
2022-08-18T05:42:06.609Z,97078.78
2022-08-18T05:52:40.082Z,97103.41
2022-08-18T06:02:52.645Z,97087.53
2022-08-18T06:13:02.349Z,97093.50
2022-08-18T06:23:06.884Z,97095.50
2022-08-18T06:33:14.518Z,97087.31
2022-08-18T06:43:17.417Z,97099.34
2022-08-18T06:53:27.823Z,97095.16
2022-08-18T07:03:39.473Z,97101.94
2022-08-18T07:13:44.608Z,97089.28
2022-08-18T07:24:23.277Z,97104.66
2022-08-18T07:34:27.857Z,97084.91
2022-08-18T07:44:45.217Z,97060.69
2022-08-18T07:54:58.970Z,97048.19
2022-08-18T08:05:35.090Z,97023.88
2022-08-18T08:16:02.703Z,97032.88
2022-08-18T08:26:38.284Z,97005.25
2022-08-18T08:36:44.905Z,97021.53
2022-08-18T08:46:57.758Z,97007.16
2022-08-18T08:57:01.420Z,97004.91
2022-08-18T09:07:38.331Z,97000.22
2022-08-18T09:18:18.325Z,96978.50
2022-08-18T09:28:56.390Z,96980.00
2022-08-18T09:39:37.272Z,96946.41
2022-08-18T09:49:47.663Z,96948.00
2022-08-18T10:00:15.228Z,96970.19
2022-08-18T10:11:00.957Z,96977.66
2022-08-18T10:21:17.847Z,96964.31
2022-08-18T10:41:58.327Z,96928.66
2022-08-18T10:52:21.136Z,96921.56
2022-08-18T11:02:44.674Z,96900.47
2022-08-18T11:13:00.364Z,96891.13
2022-08-18T11:23:19.695Z,96901.88
2022-08-18T11:33:24.431Z,96892.03
2022-08-18T11:43:41.484Z,96870.72
2022-08-18T11:54:23.299Z,96867.66
2022-08-18T12:04:37.577Z,96857.84
2022-08-18T12:15:04.854Z,96819.88
2022-08-18T12:25:25.355Z,96794.56
2022-08-18T12:35:27.345Z,96768.91
2022-08-18T12:45:31.365Z,96746.91
2022-08-18T12:55:43.646Z,96737.78
2022-08-18T13:05:47.768Z,96752.84
2022-08-18T13:15:58.651Z,96757.56
2022-08-18T13:26:05.860Z,96745.56
2022-08-18T13:36:08.006Z,96717.72
2022-08-18T13:46:14.183Z,96723.97
2022-08-18T13:56:19.321Z,96714.88
2022-08-18T14:06:22.645Z,96704.31
2022-08-18T14:16:27.448Z,96713.84
2022-08-18T14:26:50.160Z,96674.56
2022-08-18T14:36:52.102Z,96676.84
2022-08-18T14:46:57.472Z,96662.47
2022-08-18T14:57:05.598Z,96648.31
2022-08-18T15:07:10.136Z,96634.47
2022-08-18T15:17:14.691Z,96628.75
2022-08-18T15:27:19.414Z,96622.31
2022-08-18T15:37:24.081Z,96622.44
2022-08-18T15:47:26.084Z,96633.97
2022-08-18T15:57:38.815Z,96637.50
2022-08-18T16:07:47.567Z,96636.09
2022-08-18T16:17:50.883Z,96638.19
2022-08-18T16:27:53.905Z,96623.53
2022-08-18T16:37:56.116Z,96612.16
2022-08-18T16:47:57.608Z,96620.31
2022-08-18T16:58:17.845Z,96617.66
2022-08-18T17:08:19.353Z,96624.69
2022-08-18T17:18:22.249Z,96625.69
2022-08-18T17:28:29.685Z,96627.09
2022-08-18T17:38:49.423Z,96624.94
2022-08-18T17:48:57.792Z,96628.91
2022-08-18T17:59:07.121Z,96646.00
2022-08-18T18:09:30.922Z,96663.00
2022-08-18T18:19:33.884Z,96665.31
2022-08-18T18:29:39.893Z,96672.22
2022-08-18T18:39:56.233Z,96682.06
2022-08-18T18:50:14.697Z,96719.88
2022-08-18T19:00:30.193Z,96723.59
2022-08-18T19:10:31.615Z,96740.91
2022-08-18T19:20:42.262Z,96745.25
2022-08-18T19:31:15.129Z,96756.22
2022-08-18T19:41:31.005Z,96747.66
2022-08-18T19:51:40.821Z,96773.34
2022-08-18T20:02:20.787Z,96788.31
2022-08-18T20:12:28.348Z,96787.53
2022-08-18T20:22:42.191Z,96799.69
2022-08-18T20:32:43.991Z,96796.00
2022-08-18T20:42:56.112Z,96811.47
2022-08-18T20:53:21.779Z,96828.19
2022-08-18T21:03:36.142Z,96824.50
2022-08-18T21:13:51.478Z,96846.78
2022-08-18T21:23:58.347Z,96873.91
2022-08-18T21:34:07.308Z,96894.63
2022-08-18T21:44:17.184Z,96910.69
2022-08-18T21:54:23.000Z,96899.94
2022-08-18T22:04:36.697Z,96902.72
2022-08-18T22:14:54.741Z,96908.88
2022-08-18T22:24:59.052Z,96912.19
2022-08-18T22:35:00.524Z,96912.03
2022-08-18T22:45:08.911Z,96914.06
2022-08-18T22:55:13.424Z,96912.53
2022-08-18T23:05:16.806Z,96904.91
2022-08-18T23:15:18.826Z,96893.69
2022-08-18T23:25:20.308Z,96888.13
2022-08-18T23:35:21.858Z,96873.69
2022-08-18T23:45:23.422Z,96840.53
2022-08-18T23:55:25.290Z,96825.53
